Ganlose, Denmark
Current Conditions -  °F | °C
As of 7:20 AM on Tuesday 21 Oct 2014 (Local Time) from EKRK Reporting Station
Moderate Fog Moderate Fog  
Wind Chill: 50°   Ceiling: 200
Heat Index: 50°   Visibility: 0.18mi
Dew Point: 50°   Wind: 5mph
Humidity: 100%   Direction: 200°SSW
Pressure: 29.65"   Gusts: NA
Location:  55.79°N, 12.26°E
Report Text: EKRK 210520Z AUTO 20004KT 0300NDV R11/1100VP1500D R29/1300NFG VV002 10/10 Q1004
Loading
Personal Weather Stations






























Interactive Weather Map
Tropical Storm Tracking
New forecast layout! Learn more

10-Day Weather Forecast

Advertisements
Track Severe Weather on mobile